createdAt,value
2024-01-26T00:00:24.354Z,263.88
2024-01-26T00:02:51.461Z,263.90
2024-01-26T00:05:18.326Z,275.13
2024-01-26T00:07:45.588Z,268.27
2024-01-26T00:10:12.418Z,262.45
2024-01-26T00:12:39.603Z,268.27
2024-01-26T00:15:06.720Z,259.15
2024-01-26T00:17:43.320Z,242.65
2024-01-26T00:20:10.863Z,263.33
2024-01-26T00:22:47.156Z,264.83
2024-01-26T00:25:15.375Z,267.05
2024-01-26T00:27:47.188Z,266.30
2024-01-26T00:30:16.922Z,264.63
2024-01-26T00:32:47.972Z,277.38
2024-01-26T00:35:16.376Z,266.60
2024-01-26T00:37:46.635Z,263.77
2024-01-26T00:40:15.217Z,252.30
2024-01-26T00:42:44.181Z,279.58
2024-01-26T00:45:14.169Z,271.48
2024-01-26T00:47:46.027Z,275.27
2024-01-26T00:50:14.152Z,273.70
2024-01-26T00:52:44.236Z,272.80
2024-01-26T00:55:12.648Z,259.15
2024-01-26T00:57:40.772Z,267.90
2024-01-26T01:00:12.383Z,278.27
2024-01-26T01:02:41.990Z,272.77
2024-01-26T01:05:08.869Z,280.13
2024-01-26T01:07:35.540Z,253.95
2024-01-26T01:10:03.055Z,264.67
2024-01-26T01:12:30.027Z,261.52
2024-01-26T01:14:58.482Z,271.10
2024-01-26T01:17:25.568Z,258.58
2024-01-26T01:19:53.447Z,272.23
2024-01-26T01:22:29.706Z,252.63
2024-01-26T01:24:56.691Z,276.58
2024-01-26T01:27:23.591Z,258.85
2024-01-26T01:29:52.501Z,261.63
2024-01-26T01:32:21.193Z,255.48
2024-01-26T01:34:51.040Z,257.30
2024-01-26T01:37:24.587Z,250.77
2024-01-26T01:39:58.078Z,251.55
2024-01-26T01:42:24.955Z,250.65
2024-01-26T01:45:00.965Z,254.30
2024-01-26T01:47:29.519Z,254.82
2024-01-26T01:50:00.880Z,244.52
2024-01-26T01:52:28.887Z,254.00
2024-01-26T01:55:01.274Z,245.02
2024-01-26T01:57:33.988Z,260.75
2024-01-26T02:00:00.999Z,251.35
2024-01-26T02:02:27.876Z,240.35
2024-01-26T02:04:57.765Z,254.95
2024-01-26T02:07:27.502Z,246.55
2024-01-26T02:09:54.241Z,248.60
2024-01-26T02:12:20.909Z,247.88
2024-01-26T02:14:49.406Z,238.57
2024-01-26T02:17:17.141Z,231.23
2024-01-26T02:19:44.604Z,224.77
2024-01-26T02:22:11.324Z,241.85
2024-01-26T02:24:41.152Z,239.65
2024-01-26T02:27:09.556Z,255.00
2024-01-26T02:29:36.659Z,237.27
2024-01-26T02:32:03.799Z,225.27
2024-01-26T02:34:30.740Z,227.50
2024-01-26T02:37:00.543Z,228.18
2024-01-26T02:39:28.255Z,221.85
2024-01-26T02:41:55.486Z,221.18
2024-01-26T02:44:23.382Z,235.80
2024-01-26T02:46:50.046Z,236.02
2024-01-26T02:49:17.684Z,227.63
2024-01-26T02:51:45.656Z,231.00
2024-01-26T02:54:12.438Z,227.13
2024-01-26T02:56:40.560Z,227.32
2024-01-26T02:59:07.670Z,219.98
2024-01-26T03:01:34.854Z,223.95
2024-01-26T03:04:06.222Z,211.13
2024-01-26T03:06:34.458Z,227.02
2024-01-26T03:09:01.959Z,217.40
2024-01-26T03:11:39.957Z,223.40
2024-01-26T03:14:08.291Z,215.07
2024-01-26T03:16:36.303Z,203.18
2024-01-26T03:19:04.862Z,202.32
2024-01-26T03:21:34.305Z,195.30
2024-01-26T03:24:03.901Z,200.00
2024-01-26T03:26:36.469Z,212.50
2024-01-26T03:29:06.085Z,198.43
2024-01-26T03:31:34.251Z,199.02
2024-01-26T03:34:01.550Z,198.75
2024-01-26T03:36:29.767Z,196.05
2024-01-26T03:38:56.996Z,183.18
2024-01-26T03:41:24.956Z,195.13
2024-01-26T03:43:54.803Z,201.13
2024-01-26T03:46:22.148Z,196.35
2024-01-26T03:48:49.506Z,206.43
2024-01-26T03:51:17.023Z,201.60
2024-01-26T03:53:44.123Z,197.38
2024-01-26T03:56:11.021Z,198.82
2024-01-26T03:58:37.983Z,198.05
2024-01-26T04:01:07.667Z,190.02
2024-01-26T04:03:34.856Z,188.95
2024-01-26T04:06:05.781Z,196.73
2024-01-26T04:08:32.984Z,189.63
2024-01-26T04:11:03.523Z,192.38
2024-01-26T04:13:30.144Z,183.60
2024-01-26T04:15:57.685Z,177.65
2024-01-26T04:18:24.465Z,183.95
2024-01-26T04:20:53.850Z,181.23
2024-01-26T04:23:23.075Z,189.65
2024-01-26T04:25:49.759Z,179.13
2024-01-26T04:28:19.399Z,186.70
2024-01-26T04:30:53.964Z,190.02
2024-01-26T04:33:20.984Z,168.68
2024-01-26T04:35:49.012Z,181.80
2024-01-26T04:38:16.019Z,172.82
2024-01-26T04:40:42.824Z,178.68
2024-01-26T04:43:12.548Z,168.38
2024-01-26T04:45:39.247Z,175.65
2024-01-26T04:48:06.587Z,183.25
2024-01-26T04:50:39.166Z,158.80
2024-01-26T04:53:10.470Z,173.23
2024-01-26T04:55:37.258Z,168.52
2024-01-26T04:58:04.567Z,173.85
2024-01-26T05:00:32.791Z,174.18
2024-01-26T05:03:03.487Z,169.00
2024-01-26T05:05:32.680Z,167.13
2024-01-26T05:08:07.132Z,170.10
2024-01-26T05:10:34.092Z,167.50
2024-01-26T05:13:03.181Z,162.50
2024-01-26T05:15:30.217Z,172.25
2024-01-26T05:17:56.968Z,181.88
2024-01-26T05:20:23.861Z,159.77
2024-01-26T05:22:53.614Z,165.15
2024-01-26T05:25:22.493Z,159.20
2024-01-26T05:27:50.822Z,166.52
2024-01-26T05:30:21.792Z,167.23
2024-01-26T05:32:48.860Z,164.73
2024-01-26T05:35:20.253Z,178.90
2024-01-26T05:37:47.040Z,171.45
2024-01-26T05:40:16.970Z,174.38
2024-01-26T05:42:43.807Z,159.20
2024-01-26T05:45:11.553Z,157.25
2024-01-26T05:47:38.501Z,159.80
2024-01-26T05:50:06.891Z,163.68
2024-01-26T05:52:33.843Z,162.77
2024-01-26T05:55:03.432Z,171.18
2024-01-26T05:57:30.105Z,152.40
2024-01-26T05:59:58.623Z,172.40
2024-01-26T06:02:25.896Z,170.20
2024-01-26T06:04:52.879Z,210.40
2024-01-26T06:07:20.071Z,158.73
2024-01-26T06:09:48.878Z,153.52
2024-01-26T06:12:15.867Z,176.48
2024-01-26T06:14:42.905Z,167.23
2024-01-26T06:17:13.225Z,162.40
2024-01-26T06:19:40.282Z,153.48
2024-01-26T06:22:10.584Z,159.90
2024-01-26T06:24:37.310Z,143.95
2024-01-26T06:27:04.341Z,142.07
2024-01-26T06:29:34.161Z,125.30
2024-01-26T06:32:01.299Z,101.07
2024-01-26T06:34:28.652Z,99.78
2024-01-26T06:36:55.703Z,96.07
2024-01-26T06:39:22.587Z,94.68
2024-01-26T06:41:50.800Z,96.65
2024-01-26T06:44:18.039Z,90.13
2024-01-26T06:46:44.851Z,95.85
2024-01-26T06:49:12.217Z,98.03
2024-01-26T06:51:39.039Z,90.40
2024-01-26T06:54:05.787Z,96.05
2024-01-26T06:56:32.856Z,100.50
2024-01-26T06:58:59.574Z,98.13
2024-01-26T07:01:26.913Z,99.07
2024-01-26T07:03:54.142Z,111.32
2024-01-26T07:06:21.044Z,102.30
2024-01-26T07:08:48.118Z,103.90
2024-01-26T07:11:17.968Z,106.30
2024-01-26T07:13:45.121Z,102.35
2024-01-26T07:16:11.735Z,108.95
2024-01-26T07:18:39.514Z,106.40
2024-01-26T07:21:09.754Z,116.93
2024-01-26T07:23:40.134Z,123.80
2024-01-26T07:26:07.745Z,120.00
2024-01-26T07:28:35.072Z,136.80
2024-01-26T07:31:04.134Z,139.85
2024-01-26T07:33:31.004Z,140.93
2024-01-26T07:35:59.651Z,148.40
2024-01-26T07:38:29.496Z,161.68
2024-01-26T07:40:57.657Z,163.25
2024-01-26T07:43:26.672Z,162.52
2024-01-26T07:45:55.052Z,161.95
2024-01-26T07:48:23.140Z,163.43
2024-01-26T07:50:52.262Z,159.18
2024-01-26T07:53:19.210Z,156.65
2024-01-26T07:55:47.798Z,140.25
2024-01-26T07:58:15.943Z,160.15
2024-01-26T08:00:43.496Z,157.27
2024-01-26T08:03:11.717Z,156.98
2024-01-26T08:05:38.606Z,171.70
2024-01-26T08:08:05.740Z,168.40
2024-01-26T08:10:33.459Z,181.27
2024-01-26T08:13:01.156Z,180.02
2024-01-26T08:15:28.314Z,204.82
2024-01-26T08:17:55.881Z,199.98
2024-01-26T08:20:23.083Z,196.13
2024-01-26T08:22:54.960Z,205.18
2024-01-26T08:25:26.576Z,199.07
2024-01-26T08:27:54.931Z,199.60
2024-01-26T08:30:26.231Z,201.05
2024-01-26T08:32:53.240Z,208.48
2024-01-26T08:35:22.463Z,221.80
2024-01-26T08:37:49.737Z,242.35
2024-01-26T08:40:17.665Z,244.13
2024-01-26T08:42:45.864Z,225.00
2024-01-26T08:45:14.038Z,229.60
2024-01-26T08:47:42.359Z,243.05
2024-01-26T08:50:10.632Z,233.77
2024-01-26T08:52:41.927Z,242.10
2024-01-26T08:55:09.849Z,245.73
2024-01-26T08:57:39.239Z,247.10
2024-01-26T09:00:10.654Z,246.77
2024-01-26T09:02:38.734Z,242.52
2024-01-26T09:05:16.008Z,251.73
2024-01-26T09:07:42.760Z,230.98
2024-01-26T09:10:19.463Z,241.45
2024-01-26T09:12:48.146Z,239.70
2024-01-26T09:15:15.290Z,233.93
2024-01-26T09:17:42.652Z,242.93
2024-01-26T09:20:16.121Z,240.52
2024-01-26T09:22:42.953Z,247.45
2024-01-26T09:25:10.304Z,247.07
2024-01-26T09:27:40.192Z,249.52
2024-01-26T09:30:07.511Z,252.63
2024-01-26T09:32:36.225Z,249.10
2024-01-26T09:35:05.608Z,250.38
2024-01-26T09:37:32.771Z,248.40
2024-01-26T09:39:59.798Z,266.10
2024-01-26T09:42:26.897Z,256.75
2024-01-26T09:44:53.935Z,286.98
2024-01-26T09:47:35.717Z,270.55
2024-01-26T09:50:06.067Z,287.27
2024-01-26T09:52:41.305Z,281.55
2024-01-26T09:55:10.825Z,312.40
2024-01-26T09:57:37.934Z,289.92
2024-01-26T10:00:11.787Z,307.55
2024-01-26T10:02:38.744Z,288.13
2024-01-26T10:05:10.928Z,313.75
2024-01-26T10:10:09.739Z,300.20
2024-01-26T10:12:37.254Z,302.13
2024-01-26T10:15:06.869Z,298.85
2024-01-26T10:17:33.823Z,301.55
2024-01-26T10:20:15.459Z,305.40
2024-01-26T10:22:44.139Z,311.17
2024-01-26T10:25:11.320Z,306.38
2024-01-26T10:27:38.495Z,301.85
2024-01-26T10:30:06.636Z,300.25
2024-01-26T10:32:34.570Z,326.27
2024-01-26T10:35:04.323Z,300.17
2024-01-26T10:37:36.262Z,301.45
2024-01-26T10:40:08.830Z,302.65
2024-01-26T10:42:37.811Z,291.30
2024-01-26T10:45:07.193Z,307.58
2024-01-26T10:47:37.643Z,283.08
2024-01-26T10:50:07.688Z,295.48
2024-01-26T10:52:39.094Z,270.98
2024-01-26T10:55:07.487Z,284.27
2024-01-26T10:57:34.303Z,292.27
2024-01-26T11:00:03.219Z,284.48
2024-01-26T11:02:35.528Z,285.02
2024-01-26T11:05:04.013Z,298.48
2024-01-26T11:07:35.478Z,275.88
2024-01-26T11:10:24.084Z,270.52
2024-01-26T11:13:15.854Z,268.50
2024-01-26T11:18:35.215Z,273.42
2024-01-26T11:21:05.814Z,254.98
2024-01-26T11:23:51.178Z,267.85
2024-01-26T11:26:19.260Z,252.68
2024-01-26T11:28:49.724Z,262.02
2024-01-26T11:31:16.544Z,274.92
2024-01-26T11:33:44.426Z,260.33
2024-01-26T11:36:14.383Z,279.00
2024-01-26T11:38:43.789Z,272.65
2024-01-26T11:41:14.169Z,253.65
2024-01-26T11:43:48.539Z,261.65
2024-01-26T11:46:18.123Z,250.30
2024-01-26T11:48:45.252Z,253.18
2024-01-26T11:51:13.911Z,239.13
2024-01-26T11:53:44.416Z,253.55
2024-01-26T11:56:13.386Z,238.15
2024-01-26T11:58:40.896Z,243.00
2024-01-26T12:01:08.202Z,240.50
2024-01-26T12:03:37.169Z,234.75
2024-01-26T12:06:05.873Z,228.40
2024-01-26T12:08:32.954Z,224.60
2024-01-26T12:11:01.006Z,226.25
2024-01-26T12:13:28.070Z,211.13
2024-01-26T12:15:55.123Z,210.45
2024-01-26T12:18:26.945Z,203.73
2024-01-26T12:20:55.823Z,202.70
2024-01-26T12:23:22.636Z,196.65
2024-01-26T12:25:54.131Z,205.05
2024-01-26T12:28:21.614Z,193.38
2024-01-26T12:30:53.394Z,199.95
2024-01-26T12:33:27.442Z,184.25
2024-01-26T12:35:54.307Z,186.23
2024-01-26T12:38:21.024Z,181.48
2024-01-26T12:40:48.938Z,184.07
2024-01-26T12:43:19.968Z,197.05
2024-01-26T12:45:49.436Z,190.38
2024-01-26T12:48:16.366Z,183.90
2024-01-26T12:50:43.566Z,179.15
2024-01-26T12:53:11.634Z,184.55
2024-01-26T12:55:42.117Z,188.98
2024-01-26T12:58:12.687Z,180.20
2024-01-26T13:00:39.961Z,171.25
2024-01-26T13:03:07.427Z,166.18
2024-01-26T13:05:37.469Z,164.98
2024-01-26T13:08:04.583Z,156.23
2024-01-26T13:10:31.387Z,157.27
2024-01-26T13:12:58.198Z,154.38
2024-01-26T13:15:27.859Z,162.70
2024-01-26T13:17:54.893Z,162.18
2024-01-26T13:20:22.008Z,165.95
2024-01-26T13:22:50.377Z,169.68
2024-01-26T13:25:18.112Z,170.75
2024-01-26T13:27:45.470Z,174.18
2024-01-26T13:30:16.975Z,163.15
2024-01-26T13:32:49.420Z,166.30
2024-01-26T13:35:19.123Z,164.57
2024-01-26T13:37:45.910Z,156.18
2024-01-26T13:40:12.857Z,151.40
2024-01-26T13:42:40.055Z,156.77
2024-01-26T13:45:10.057Z,152.77
2024-01-26T13:47:46.631Z,143.38
2024-01-26T13:50:19.353Z,154.10
2024-01-26T13:52:47.110Z,162.73
2024-01-26T13:55:14.083Z,157.02
2024-01-26T13:57:43.164Z,155.57
2024-01-26T14:00:20.952Z,152.02
2024-01-26T14:02:50.440Z,146.75
2024-01-26T14:05:20.997Z,145.98
2024-01-26T14:07:48.608Z,153.05
2024-01-26T14:10:15.960Z,163.48
2024-01-26T14:12:54.282Z,145.68
2024-01-26T14:15:28.737Z,151.60
2024-01-26T14:17:58.301Z,152.57
2024-01-26T14:20:25.154Z,153.73
2024-01-26T14:22:52.833Z,148.48
2024-01-26T14:25:25.651Z,170.95
2024-01-26T14:27:53.121Z,156.75
2024-01-26T14:30:21.696Z,156.48
2024-01-26T14:32:49.115Z,169.38
2024-01-26T14:35:18.039Z,164.13
2024-01-26T14:37:45.998Z,158.32
2024-01-26T14:40:23.592Z,169.32
2024-01-26T14:42:51.377Z,167.27
2024-01-26T14:45:18.370Z,165.68
2024-01-26T14:50:14.148Z,154.52
2024-01-26T14:52:41.767Z,162.73
2024-01-26T14:55:15.312Z,173.50
2024-01-26T14:57:46.845Z,159.60
2024-01-26T15:00:16.378Z,172.82
2024-01-26T15:02:44.229Z,176.60
2024-01-26T15:05:18.676Z,161.50
2024-01-26T15:07:49.629Z,164.75
2024-01-26T15:10:18.387Z,164.35
2024-01-26T15:12:48.038Z,159.18
2024-01-26T15:15:14.950Z,166.00
2024-01-26T15:17:42.289Z,161.82
2024-01-26T15:20:10.605Z,171.73
2024-01-26T15:22:37.549Z,164.60
2024-01-26T15:25:05.967Z,160.60
2024-01-26T15:27:33.076Z,159.15
2024-01-26T15:30:04.533Z,161.07
2024-01-26T15:32:32.244Z,151.30
2024-01-26T15:34:59.871Z,153.10
2024-01-26T15:37:26.832Z,158.93
2024-01-26T15:39:54.216Z,153.65
2024-01-26T15:42:20.977Z,148.27
2024-01-26T15:44:47.796Z,152.32
2024-01-26T15:47:18.140Z,157.65
2024-01-26T15:49:45.630Z,151.05
2024-01-26T15:52:13.011Z,145.32
2024-01-26T15:54:39.695Z,157.90
2024-01-26T15:57:07.170Z,152.35
2024-01-26T15:59:37.834Z,143.23
2024-01-26T16:02:04.595Z,147.40
2024-01-26T16:04:31.593Z,156.48
2024-01-26T16:06:58.390Z,149.18
2024-01-26T16:09:25.405Z,153.55
2024-01-26T16:11:57.493Z,153.55
2024-01-26T16:16:51.072Z,150.55
2024-01-26T16:19:17.941Z,142.07
2024-01-26T16:21:47.252Z,151.57
2024-01-26T16:24:14.403Z,144.45
2024-01-26T16:26:41.357Z,139.18
2024-01-26T16:29:08.823Z,146.63
2024-01-26T16:31:39.842Z,149.57
2024-01-26T16:34:06.766Z,140.83
2024-01-26T16:36:35.062Z,145.52
2024-01-26T16:39:03.667Z,145.05
2024-01-26T16:41:39.788Z,149.45
2024-01-26T16:44:06.685Z,148.50
2024-01-26T16:46:33.301Z,147.45
2024-01-26T16:49:00.105Z,138.70
2024-01-26T16:51:29.841Z,137.07
2024-01-26T16:53:56.649Z,145.07
2024-01-26T16:56:23.436Z,156.18
2024-01-26T16:58:50.180Z,148.95
2024-01-26T17:01:18.300Z,151.90
2024-01-26T17:03:48.538Z,144.00
2024-01-26T17:06:15.569Z,145.27
2024-01-26T17:08:42.426Z,135.07
2024-01-26T17:11:09.814Z,144.05
2024-01-26T17:13:38.716Z,148.02
2024-01-26T17:16:08.810Z,144.38
2024-01-26T17:18:38.773Z,149.13
2024-01-26T17:21:07.064Z,142.27
2024-01-26T17:23:37.729Z,152.32
2024-01-26T17:26:04.883Z,144.80
2024-01-26T17:28:31.728Z,146.90
2024-01-26T17:30:58.624Z,151.95
2024-01-26T17:33:26.866Z,149.05
2024-01-26T17:35:53.942Z,142.18
2024-01-26T17:38:25.999Z,149.40
2024-01-26T17:40:52.986Z,144.23
2024-01-26T17:43:19.909Z,136.40
2024-01-26T17:45:48.256Z,150.95
2024-01-26T17:48:15.393Z,136.32
2024-01-26T17:50:45.183Z,137.07
2024-01-26T17:53:12.404Z,141.95
2024-01-26T17:55:41.919Z,147.40
2024-01-26T17:58:17.051Z,145.20
2024-01-26T18:00:44.382Z,141.40
2024-01-26T18:03:28.875Z,155.80
2024-01-26T18:06:03.104Z,145.75
2024-01-26T18:08:31.219Z,147.10
2024-01-26T18:10:59.154Z,141.50
2024-01-26T18:13:26.306Z,143.20
2024-01-26T18:15:53.118Z,147.55
2024-01-26T18:18:23.714Z,138.48
2024-01-26T18:20:51.340Z,145.32
2024-01-26T18:23:18.141Z,145.57
2024-01-26T18:25:45.542Z,138.60
2024-01-26T18:28:12.346Z,130.00
2024-01-26T18:30:39.292Z,142.35
2024-01-26T18:33:06.452Z,134.90
2024-01-26T18:35:33.686Z,135.13
2024-01-26T18:38:04.603Z,137.60
2024-01-26T18:40:32.618Z,137.82
2024-01-26T18:42:59.397Z,136.88
2024-01-26T18:45:26.695Z,139.45
2024-01-26T18:47:53.631Z,128.80
2024-01-26T18:50:21.595Z,130.13
2024-01-26T18:52:52.790Z,133.65
2024-01-26T18:55:20.142Z,128.80
2024-01-26T18:57:46.975Z,130.45
2024-01-26T19:00:20.552Z,130.50
2024-01-26T19:02:51.781Z,127.05
2024-01-26T19:05:22.290Z,136.85
2024-01-26T19:07:49.382Z,146.95
2024-01-26T19:10:16.186Z,141.43
2024-01-26T19:12:45.783Z,127.60
2024-01-26T19:15:12.984Z,132.30
2024-01-26T19:17:40.516Z,122.00
2024-01-26T19:20:08.671Z,136.85
2024-01-26T19:22:35.934Z,125.72
2024-01-26T19:25:05.837Z,123.43
2024-01-26T19:27:33.727Z,122.07
2024-01-26T19:30:05.464Z,122.00
2024-01-26T19:32:32.754Z,132.25
2024-01-26T19:35:06.378Z,132.30
2024-01-26T19:37:35.234Z,123.88
2024-01-26T19:40:02.682Z,113.85
2024-01-26T19:42:29.797Z,125.88
2024-01-26T19:44:58.416Z,121.00
2024-01-26T19:47:25.217Z,121.65
2024-01-26T19:49:52.166Z,119.70
2024-01-26T19:52:19.665Z,120.68
2024-01-26T19:54:49.608Z,113.60
2024-01-26T19:57:16.454Z,110.85
2024-01-26T19:59:43.224Z,105.22
2024-01-26T20:02:10.209Z,103.13
2024-01-26T20:04:36.980Z,102.30
2024-01-26T20:07:04.802Z,106.90
2024-01-26T20:09:31.891Z,100.63
2024-01-26T20:11:59.599Z,102.65
2024-01-26T20:14:26.417Z,100.15
2024-01-26T20:16:53.343Z,103.40
2024-01-26T20:19:23.067Z,104.30
2024-01-26T20:21:49.802Z,98.95
2024-01-26T20:24:16.888Z,102.97
2024-01-26T20:26:43.971Z,98.13
2024-01-26T20:29:11.044Z,110.97
2024-01-26T20:31:39.970Z,99.70
2024-01-26T20:34:08.234Z,92.78
2024-01-26T20:36:41.802Z,103.88
2024-01-26T20:39:09.348Z,105.10
2024-01-26T20:41:36.804Z,103.68
2024-01-26T20:44:04.674Z,101.68
2024-01-26T20:46:31.719Z,104.65
2024-01-26T20:48:59.112Z,101.75
2024-01-26T20:51:26.672Z,103.65
2024-01-26T20:53:54.540Z,99.72
2024-01-26T20:56:21.651Z,96.50
2024-01-26T20:58:48.559Z,97.20
2024-01-26T21:01:17.366Z,96.38
2024-01-26T21:03:47.511Z,94.53
2024-01-26T21:06:14.801Z,103.68
2024-01-26T21:08:42.036Z,101.40
2024-01-26T21:11:08.972Z,98.72
2024-01-26T21:13:36.249Z,105.72
2024-01-26T21:16:05.304Z,110.43
2024-01-26T21:18:32.376Z,100.60
2024-01-26T21:20:59.196Z,110.25
2024-01-26T21:23:26.290Z,105.38
2024-01-26T21:25:53.526Z,103.38
2024-01-26T21:28:25.634Z,104.20
2024-01-26T21:33:22.786Z,103.93
2024-01-26T21:35:51.574Z,102.05
2024-01-26T21:38:20.483Z,107.22
2024-01-26T21:40:51.752Z,104.93
2024-01-26T21:43:25.012Z,105.05
2024-01-26T21:45:53.660Z,106.30
2024-01-26T21:48:24.897Z,102.93
2024-01-26T21:50:52.505Z,111.68
2024-01-26T21:53:21.188Z,106.60
2024-01-26T21:55:48.042Z,101.82
2024-01-26T21:58:14.773Z,113.55
2024-01-26T22:00:42.601Z,104.45
2024-01-26T22:03:09.614Z,105.75
2024-01-26T22:05:39.196Z,98.68
2024-01-26T22:08:09.537Z,102.25
2024-01-26T22:10:37.786Z,108.82
2024-01-26T22:13:05.582Z,108.18
2024-01-26T22:15:32.309Z,108.95
2024-01-26T22:17:59.578Z,109.07
2024-01-26T22:20:26.379Z,101.65
2024-01-26T22:22:56.397Z,102.97
2024-01-26T22:25:28.025Z,102.05
2024-01-26T22:28:01.895Z,109.35
2024-01-26T22:30:31.694Z,108.70
2024-01-26T22:33:02.235Z,111.00
2024-01-26T22:35:29.606Z,114.07
2024-01-26T22:37:56.309Z,108.07
2024-01-26T22:40:23.759Z,106.47
2024-01-26T22:42:50.778Z,110.25
2024-01-26T22:45:17.868Z,107.97
2024-01-26T22:47:44.866Z,114.93
2024-01-26T22:50:11.758Z,107.68
2024-01-26T22:52:38.586Z,115.50
2024-01-26T22:55:08.324Z,105.90
2024-01-26T22:57:35.242Z,106.88
2024-01-26T23:00:02.219Z,102.05
2024-01-26T23:02:29.992Z,105.07
2024-01-26T23:04:56.794Z,109.82
2024-01-26T23:07:23.569Z,108.65
2024-01-26T23:09:50.251Z,107.43
2024-01-26T23:12:17.056Z,111.85
2024-01-26T23:14:54.180Z,104.18
2024-01-26T23:17:20.996Z,99.50
2024-01-26T23:19:48.429Z,106.75
2024-01-26T23:22:15.135Z,99.57
2024-01-26T23:24:41.873Z,107.78
2024-01-26T23:27:11.523Z,110.18
2024-01-26T23:29:38.640Z,107.18
2024-01-26T23:32:07.484Z,102.72
2024-01-26T23:34:36.990Z,104.00
2024-01-26T23:37:06.730Z,106.68
2024-01-26T23:39:33.449Z,97.40
2024-01-26T23:42:00.363Z,96.50
2024-01-26T23:44:27.022Z,96.88
2024-01-26T23:46:53.982Z,102.50
2024-01-26T23:49:21.205Z,95.82
2024-01-26T23:51:48.237Z,92.78
2024-01-26T23:54:16.651Z,96.57
2024-01-26T23:56:44.122Z,96.53
2024-01-26T23:59:10.853Z,108.20
